createdAt,value
2022-12-12T00:01:39.183Z,100918.00
2022-12-12T00:04:06.373Z,100936.00
2022-12-12T00:06:33.324Z,100934.00
2022-12-12T00:09:00.085Z,100934.00
2022-12-12T00:11:27.464Z,100936.00
2022-12-12T00:13:54.619Z,100942.00
2022-12-12T00:16:21.906Z,100943.00
2022-12-12T00:18:48.950Z,100945.00
2022-12-12T00:21:18.631Z,100955.00
2022-12-12T00:23:45.815Z,100955.00
2022-12-12T00:26:21.020Z,100966.00
2022-12-12T00:28:49.367Z,100977.00
2022-12-12T00:31:16.975Z,100968.00
2022-12-12T00:33:45.071Z,100970.00
2022-12-12T00:36:11.824Z,100962.00
2022-12-12T00:38:38.445Z,100969.00
2022-12-12T00:41:06.261Z,100975.00
2022-12-12T00:43:33.517Z,100970.00
2022-12-12T00:46:00.995Z,100976.00
2022-12-12T00:48:28.906Z,100965.00
2022-12-12T00:50:55.772Z,100971.00
2022-12-12T00:53:22.451Z,100972.00
2022-12-12T00:55:57.266Z,100967.00
2022-12-12T00:58:24.617Z,100966.00
2022-12-12T01:00:51.928Z,100979.00
2022-12-12T01:03:19.506Z,100976.00
2022-12-12T01:05:46.326Z,100982.00
2022-12-12T01:08:13.170Z,100968.00
2022-12-12T01:10:40.399Z,100973.00
2022-12-12T01:13:06.978Z,100971.00
2022-12-12T01:15:33.635Z,100965.00
2022-12-12T01:18:00.287Z,100966.00
2022-12-12T01:20:28.747Z,100964.00
2022-12-12T01:22:55.381Z,100962.00
2022-12-12T01:25:22.166Z,100969.00
2022-12-12T01:27:48.873Z,100968.00
2022-12-12T01:30:19.774Z,100963.00
2022-12-12T01:32:46.401Z,100975.00
2022-12-12T01:35:13.114Z,100972.00
2022-12-12T01:37:40.930Z,100974.00
2022-12-12T01:40:13.280Z,100972.00
2022-12-12T01:42:39.866Z,100975.00
2022-12-12T01:45:07.045Z,100978.00
2022-12-12T01:47:33.643Z,100981.00
2022-12-12T01:50:07.973Z,100985.00
2022-12-12T01:52:49.110Z,100985.00
2022-12-12T01:55:20.591Z,100978.00
2022-12-12T01:57:51.712Z,100985.00
2022-12-12T02:00:26.794Z,100979.00
2022-12-12T02:02:55.949Z,100978.00
2022-12-12T02:05:34.778Z,100985.00
2022-12-12T02:08:03.489Z,100978.00
2022-12-12T02:10:30.562Z,100981.00
2022-12-12T02:13:04.152Z,100980.00
2022-12-12T02:15:41.814Z,100985.00
2022-12-12T02:18:17.033Z,100984.00
2022-12-12T02:21:03.078Z,100987.00
2022-12-12T02:24:03.090Z,100996.00
2022-12-12T02:27:07.279Z,100994.00
2022-12-12T02:30:10.691Z,100998.00
2022-12-12T02:32:40.243Z,100991.00
2022-12-12T02:35:25.212Z,101000.00
2022-12-12T02:38:02.286Z,101007.00
2022-12-12T02:40:38.729Z,101005.00
2022-12-12T02:43:26.632Z,101006.00
2022-12-12T02:46:05.415Z,101001.00
2022-12-12T02:48:46.907Z,101007.00
2022-12-12T02:51:15.764Z,101011.00
2022-12-12T02:53:42.411Z,101011.00
2022-12-12T02:56:47.698Z,101009.00
2022-12-12T02:59:22.954Z,101008.00
2022-12-12T03:02:08.217Z,101002.00
2022-12-12T03:05:18.899Z,101004.00
2022-12-12T03:08:05.153Z,101007.00
2022-12-12T03:10:57.824Z,101006.00
2022-12-12T03:13:40.181Z,101004.00
2022-12-12T03:16:32.912Z,101007.00
2022-12-12T03:19:38.415Z,101000.00
2022-12-12T03:22:19.686Z,101001.00
2022-12-12T03:24:56.084Z,101002.00
2022-12-12T03:27:45.388Z,101004.00
2022-12-12T03:30:15.139Z,101006.00
2022-12-12T03:32:48.778Z,101006.00
2022-12-12T03:35:53.266Z,101003.00
2022-12-12T03:38:24.694Z,100999.00
2022-12-12T03:40:58.970Z,100997.00
2022-12-12T03:43:48.829Z,101012.00
2022-12-12T03:46:27.330Z,101016.00
2022-12-12T03:48:57.631Z,101000.00
2022-12-12T03:51:33.391Z,100999.00
2022-12-12T03:54:04.955Z,101001.00
2022-12-12T03:56:42.204Z,101007.00
2022-12-12T03:59:22.748Z,100998.00
2022-12-12T04:02:07.967Z,101009.00
2022-12-12T04:04:58.954Z,101011.00
2022-12-12T04:07:33.811Z,101017.00
2022-12-12T04:10:18.966Z,101018.00
2022-12-12T04:13:08.288Z,101020.00
2022-12-12T04:16:02.721Z,101020.00
2022-12-12T04:18:52.698Z,101031.00
2022-12-12T04:21:42.622Z,101022.00
2022-12-12T04:24:27.784Z,101040.00
2022-12-12T04:27:06.889Z,101041.00
2022-12-12T04:29:42.812Z,101032.00
2022-12-12T04:32:13.094Z,101033.00
2022-12-12T04:34:49.913Z,101035.00
2022-12-12T04:37:21.700Z,101034.00
2022-12-12T04:39:51.124Z,101043.00
2022-12-12T04:42:22.672Z,101037.00
2022-12-12T04:44:52.802Z,101044.00
2022-12-12T04:47:21.056Z,101037.00
2022-12-12T04:49:49.994Z,101042.00
2022-12-12T04:52:20.362Z,101044.00
2022-12-12T04:54:54.089Z,101038.00
2022-12-12T04:57:26.051Z,101038.00
2022-12-12T04:59:52.785Z,101041.00
2022-12-12T05:02:30.749Z,101039.00
2022-12-12T05:05:02.286Z,101048.00
2022-12-12T05:07:43.771Z,101050.00
2022-12-12T05:10:16.553Z,101048.00
2022-12-12T05:12:46.709Z,101050.00
2022-12-12T05:15:15.783Z,101045.00
2022-12-12T05:17:46.592Z,101056.00
2022-12-12T05:20:14.807Z,101053.00
2022-12-12T05:22:41.434Z,101054.00
2022-12-12T05:25:08.582Z,101055.00
2022-12-12T05:27:35.290Z,101054.00
2022-12-12T05:30:02.178Z,101056.00
2022-12-12T05:32:28.903Z,101059.00
2022-12-12T05:34:55.549Z,101054.00
2022-12-12T05:37:22.293Z,101056.00
2022-12-12T05:39:48.957Z,101055.00
2022-12-12T05:42:15.515Z,101053.00
2022-12-12T05:44:42.810Z,101060.00
2022-12-12T05:47:09.765Z,101050.00
2022-12-12T05:49:36.333Z,101062.00
2022-12-12T05:52:03.515Z,101062.00
2022-12-12T05:54:30.462Z,101058.00
2022-12-12T05:56:57.173Z,101065.00
2022-12-12T05:59:23.860Z,101061.00
2022-12-12T06:01:50.447Z,101066.00
2022-12-12T06:04:17.083Z,101069.00
2022-12-12T06:06:43.753Z,101064.00
2022-12-12T06:09:10.356Z,101066.00
2022-12-12T06:11:36.984Z,101065.00
2022-12-12T06:14:03.912Z,101073.00
2022-12-12T06:16:30.597Z,101073.00
2022-12-12T06:18:57.318Z,101083.00
2022-12-12T06:21:24.455Z,101073.00
2022-12-12T06:23:51.734Z,101081.00
2022-12-12T06:26:20.559Z,101083.00
2022-12-12T06:28:47.817Z,101081.00
2022-12-12T06:31:14.862Z,101086.00
2022-12-12T06:33:43.470Z,101090.00
2022-12-12T06:36:14.084Z,101090.00
2022-12-12T06:38:41.489Z,101086.00
2022-12-12T06:41:10.653Z,101083.00
2022-12-12T06:43:37.295Z,101084.00
2022-12-12T06:46:06.419Z,101095.00
2022-12-12T06:48:34.444Z,101090.00
2022-12-12T06:51:06.619Z,101093.00
2022-12-12T06:53:33.358Z,101101.00
2022-12-12T06:55:59.934Z,101099.00
2022-12-12T06:58:26.517Z,101093.00
2022-12-12T07:00:53.817Z,101085.00
2022-12-12T07:03:20.964Z,101096.00
2022-12-12T07:05:47.773Z,101100.00
2022-12-12T07:08:15.577Z,101100.00
2022-12-12T07:10:42.544Z,101103.00
2022-12-12T07:13:09.384Z,101107.00
2022-12-12T07:15:45.606Z,101099.00
2022-12-12T07:18:12.938Z,101103.00
2022-12-12T07:20:45.967Z,101109.00
2022-12-12T07:23:12.965Z,101108.00
2022-12-12T07:25:41.293Z,101114.00
2022-12-12T07:28:08.957Z,101108.00
2022-12-12T07:30:39.308Z,101112.00
2022-12-12T07:33:06.005Z,101116.00
2022-12-12T07:35:32.936Z,101109.00
2022-12-12T07:37:59.499Z,101118.00
2022-12-12T07:40:26.368Z,101113.00
2022-12-12T07:42:53.039Z,101126.00
2022-12-12T07:45:20.297Z,101130.00
2022-12-12T07:47:47.545Z,101133.00
2022-12-12T07:50:14.485Z,101131.00
2022-12-12T07:52:41.693Z,101132.00
2022-12-12T07:55:08.720Z,101150.00
2022-12-12T07:57:35.342Z,101142.00
2022-12-12T08:00:02.186Z,101151.00
2022-12-12T08:02:28.846Z,101159.00
2022-12-12T08:04:55.631Z,101154.00
2022-12-12T08:07:22.213Z,101158.00
2022-12-12T08:09:48.928Z,101160.00
2022-12-12T08:12:15.693Z,101163.00
2022-12-12T08:14:42.502Z,101161.00
2022-12-12T08:17:09.143Z,101159.00
2022-12-12T08:19:35.861Z,101143.00
2022-12-12T08:22:02.656Z,101154.00
2022-12-12T08:24:30.083Z,101151.00
2022-12-12T08:26:56.635Z,101162.00
2022-12-12T08:29:23.303Z,101157.00
2022-12-12T08:31:50.134Z,101151.00
2022-12-12T08:34:16.808Z,101170.00
2022-12-12T08:36:43.889Z,101155.00
2022-12-12T08:39:14.165Z,101162.00
2022-12-12T08:41:43.659Z,101159.00
2022-12-12T08:44:12.522Z,101164.00
2022-12-12T08:46:40.085Z,101164.00
2022-12-12T08:49:07.871Z,101173.00
2022-12-12T08:51:37.464Z,101174.00
2022-12-12T08:54:04.252Z,101180.00
2022-12-12T08:56:30.853Z,101179.00
2022-12-12T08:58:57.598Z,101181.00
2022-12-12T09:01:26.329Z,101191.00
2022-12-12T09:03:54.897Z,101180.00
2022-12-12T09:06:22.514Z,101175.00
2022-12-12T09:08:50.127Z,101180.00
2022-12-12T09:11:18.154Z,101181.00
2022-12-12T09:13:45.225Z,101183.00
2022-12-12T09:16:12.732Z,101178.00
2022-12-12T09:18:46.346Z,101175.00
2022-12-12T09:21:15.735Z,101176.00
2022-12-12T09:23:42.345Z,101176.00
2022-12-12T09:26:10.378Z,101165.00
2022-12-12T09:28:37.233Z,101176.00
2022-12-12T09:31:08.620Z,101171.00
2022-12-12T09:33:36.059Z,101182.00
2022-12-12T09:36:05.561Z,101183.00
2022-12-12T09:38:32.703Z,101184.00
2022-12-12T09:41:09.186Z,101199.00
2022-12-12T09:43:46.782Z,101196.00
2022-12-12T09:46:34.368Z,101193.00
2022-12-12T09:49:12.847Z,101204.00
2022-12-12T09:51:40.778Z,101206.00
2022-12-12T09:54:07.542Z,101205.00
2022-12-12T09:56:50.706Z,101209.00
2022-12-12T09:59:31.873Z,101202.00
2022-12-12T10:02:47.627Z,101212.00
2022-12-12T10:06:28.787Z,101212.00
2022-12-12T10:09:27.172Z,101212.00
2022-12-12T10:11:55.761Z,101206.00
2022-12-12T10:14:35.773Z,101200.00
2022-12-12T10:17:07.352Z,101212.00
2022-12-12T10:19:43.940Z,101199.00
2022-12-12T10:22:24.447Z,101193.00
2022-12-12T10:25:06.421Z,101192.00
2022-12-12T10:27:33.107Z,101191.00
2022-12-12T10:30:13.647Z,101179.00
2022-12-12T10:33:07.958Z,101170.00
2022-12-12T10:36:08.255Z,101170.00
2022-12-12T10:39:07.588Z,101176.00
2022-12-12T10:41:48.863Z,101163.00
2022-12-12T10:44:47.485Z,101170.00
2022-12-12T10:47:14.544Z,101164.00
2022-12-12T10:49:42.158Z,101159.00
2022-12-12T10:52:18.346Z,101162.00
2022-12-12T10:54:50.754Z,101156.00
2022-12-12T10:57:29.129Z,101167.00
2022-12-12T10:59:57.978Z,101166.00
2022-12-12T11:02:39.714Z,101167.00
2022-12-12T11:05:06.540Z,101172.00
2022-12-12T11:07:38.967Z,101166.00
2022-12-12T11:10:30.468Z,101159.00
2022-12-12T11:13:13.089Z,101164.00
2022-12-12T11:15:56.559Z,101154.00
2022-12-12T11:18:24.919Z,101152.00
2022-12-12T11:21:08.582Z,101143.00
2022-12-12T11:23:39.752Z,101142.00
2022-12-12T11:26:13.831Z,101151.00
2022-12-12T11:28:41.428Z,101152.00
2022-12-12T11:31:16.911Z,101147.00
2022-12-12T11:33:50.213Z,101150.00
2022-12-12T11:36:19.230Z,101130.00
2022-12-12T11:38:55.050Z,101132.00
2022-12-12T11:41:22.254Z,101136.00
2022-12-12T11:43:49.048Z,101132.00
2022-12-12T11:46:17.212Z,101134.00
2022-12-12T11:48:47.055Z,101126.00
2022-12-12T11:51:29.743Z,101126.00
2022-12-12T11:53:56.498Z,101132.00
2022-12-12T11:56:36.437Z,101128.00
2022-12-12T11:59:21.224Z,101130.00
2022-12-12T12:02:11.014Z,101132.00
2022-12-12T12:04:56.457Z,101129.00
2022-12-12T12:07:57.497Z,101132.00
2022-12-12T12:10:48.661Z,101132.00
2022-12-12T12:13:35.500Z,101116.00
2022-12-12T12:16:05.148Z,101130.00
2022-12-12T12:18:52.357Z,101122.00
2022-12-12T12:21:46.758Z,101124.00
2022-12-12T12:24:47.515Z,101124.00
2022-12-12T12:27:47.380Z,101124.00
2022-12-12T12:30:48.934Z,101127.00
2022-12-12T12:33:34.931Z,101120.00
2022-12-12T12:36:22.794Z,101108.00
2022-12-12T12:38:54.518Z,101118.00
2022-12-12T12:41:31.736Z,101112.00
2022-12-12T12:44:14.466Z,101122.00
2022-12-12T12:46:50.016Z,101105.00
2022-12-12T12:49:24.701Z,101115.00
2022-12-12T12:52:20.846Z,101113.00
2022-12-12T12:54:49.272Z,101107.00
2022-12-12T12:57:39.212Z,101101.00
2022-12-12T13:00:17.395Z,101108.00
2022-12-12T13:03:13.452Z,101101.00
2022-12-12T13:05:46.244Z,101093.00
2022-12-12T13:08:43.119Z,101093.00
2022-12-12T13:11:26.929Z,101086.00
2022-12-12T13:13:57.246Z,101078.00
2022-12-12T13:16:27.784Z,101084.00
2022-12-12T13:19:10.996Z,101085.00
2022-12-12T13:21:57.248Z,101081.00
2022-12-12T13:24:36.742Z,101084.00
2022-12-12T13:27:25.653Z,101086.00
2022-12-12T13:30:00.523Z,101084.00
2022-12-12T13:32:39.290Z,101089.00
2022-12-12T13:35:15.250Z,101088.00
2022-12-12T13:37:48.719Z,101087.00
2022-12-12T13:40:29.497Z,101082.00
2022-12-12T13:42:57.897Z,101083.00
2022-12-12T13:45:39.592Z,101081.00
2022-12-12T13:48:29.331Z,101079.00
2022-12-12T13:51:36.236Z,101079.00
2022-12-12T13:54:13.778Z,101077.00
2022-12-12T13:56:45.228Z,101075.00
2022-12-12T13:59:26.967Z,101076.00
2022-12-12T14:02:00.948Z,101072.00
2022-12-12T14:04:32.206Z,101079.00
2022-12-12T14:07:19.015Z,101077.00
2022-12-12T14:09:49.616Z,101076.00
2022-12-12T14:12:20.232Z,101075.00
2022-12-12T14:14:57.511Z,101070.00
2022-12-12T14:17:26.720Z,101073.00
2022-12-12T14:19:55.945Z,101066.00
2022-12-12T14:22:28.232Z,101060.00
2022-12-12T14:25:17.926Z,101061.00
2022-12-12T14:27:50.520Z,101061.00
2022-12-12T14:30:18.155Z,101070.00
2022-12-12T14:33:09.113Z,101072.00
2022-12-12T14:35:51.494Z,101077.00
2022-12-12T14:38:27.752Z,101067.00
2022-12-12T14:41:00.234Z,101073.00
2022-12-12T14:43:34.125Z,101071.00
2022-12-12T14:46:01.961Z,101070.00
2022-12-12T14:48:29.447Z,101077.00
2022-12-12T14:51:09.528Z,101083.00
2022-12-12T14:53:39.214Z,101085.00
2022-12-12T14:56:10.450Z,101078.00
2022-12-12T14:58:41.398Z,101084.00
2022-12-12T15:01:08.983Z,101077.00
2022-12-12T15:03:41.859Z,101087.00
2022-12-12T15:06:23.784Z,101078.00
2022-12-12T15:08:52.488Z,101083.00
2022-12-12T15:11:25.641Z,101087.00
2022-12-12T15:14:00.365Z,101084.00
2022-12-12T15:16:58.713Z,101079.00
2022-12-12T15:19:45.527Z,101084.00
2022-12-12T15:22:31.527Z,101084.00
2022-12-12T15:25:20.537Z,101085.00
2022-12-12T15:27:55.621Z,101083.00
2022-12-12T15:30:37.158Z,101093.00
2022-12-12T15:33:06.279Z,101093.00
2022-12-12T15:35:32.967Z,101090.00
2022-12-12T15:38:10.418Z,101092.00
2022-12-12T15:40:38.901Z,101102.00
2022-12-12T15:43:11.205Z,101096.00
2022-12-12T15:45:46.074Z,101102.00
2022-12-12T15:48:18.780Z,101111.00
2022-12-12T15:50:45.942Z,101111.00
2022-12-12T15:53:15.321Z,101102.00
2022-12-12T15:55:53.381Z,101111.00
2022-12-12T15:58:29.093Z,101108.00
2022-12-12T16:01:20.979Z,101106.00
2022-12-12T16:04:19.145Z,101101.00
2022-12-12T16:06:47.422Z,101108.00
2022-12-12T16:09:26.309Z,101104.00
2022-12-12T16:11:53.906Z,101111.00
2022-12-12T16:14:35.511Z,101116.00
2022-12-12T16:17:20.396Z,101109.00
2022-12-12T16:19:56.196Z,101114.00
2022-12-12T16:22:37.525Z,101122.00
2022-12-12T16:25:17.478Z,101123.00
2022-12-12T16:27:44.920Z,101121.00
2022-12-12T16:30:14.523Z,101124.00
2022-12-12T16:32:42.400Z,101124.00
2022-12-12T16:35:15.709Z,101121.00
2022-12-12T16:37:42.510Z,101126.00
2022-12-12T16:40:14.554Z,101124.00
2022-12-12T16:42:42.539Z,101131.00
2022-12-12T16:45:11.590Z,101128.00
2022-12-12T16:47:38.477Z,101134.00
2022-12-12T16:50:05.563Z,101131.00
2022-12-12T16:52:32.205Z,101124.00
2022-12-12T16:54:58.810Z,101122.00
2022-12-12T16:57:25.432Z,101127.00
2022-12-12T16:59:52.049Z,101125.00
2022-12-12T17:02:22.027Z,101117.00
2022-12-12T17:04:50.316Z,101119.00
2022-12-12T17:07:17.273Z,101118.00
2022-12-12T17:09:43.961Z,101123.00
2022-12-12T17:12:12.929Z,101122.00
2022-12-12T17:14:39.636Z,101108.00
2022-12-12T17:17:06.698Z,101116.00
2022-12-12T17:19:33.538Z,101122.00
2022-12-12T17:22:00.735Z,101119.00
2022-12-12T17:24:27.604Z,101122.00
2022-12-12T17:26:54.354Z,101119.00
2022-12-12T17:29:21.295Z,101116.00
2022-12-12T17:31:48.064Z,101110.00
2022-12-12T17:34:14.703Z,101110.00
2022-12-12T17:36:41.431Z,101111.00
2022-12-12T17:39:07.977Z,101112.00
2022-12-12T17:41:34.710Z,101116.00
2022-12-12T17:44:01.271Z,101105.00
2022-12-12T17:46:28.778Z,101119.00
2022-12-12T17:48:58.301Z,101113.00
2022-12-12T17:51:25.209Z,101110.00
2022-12-12T17:53:52.919Z,101105.00
2022-12-12T17:56:22.614Z,101107.00
2022-12-12T17:58:50.227Z,101116.00
2022-12-12T18:01:23.985Z,101114.00
2022-12-12T18:03:51.659Z,101113.00
2022-12-12T18:06:19.856Z,101119.00
2022-12-12T18:08:47.146Z,101118.00
2022-12-12T18:11:16.490Z,101119.00
2022-12-12T18:13:44.109Z,101119.00
2022-12-12T18:16:13.060Z,101116.00
2022-12-12T18:18:40.450Z,101115.00
2022-12-12T18:21:35.871Z,101122.00
2022-12-12T18:24:03.708Z,101125.00
2022-12-12T18:26:30.410Z,101118.00
2022-12-12T18:29:02.104Z,101124.00
2022-12-12T18:31:29.569Z,101117.00
2022-12-12T18:33:56.937Z,101115.00
2022-12-12T18:36:27.404Z,101108.00
2022-12-12T18:38:55.992Z,101113.00
2022-12-12T18:41:22.832Z,101120.00
2022-12-12T18:43:49.410Z,101118.00
2022-12-12T18:46:18.991Z,101120.00
2022-12-12T18:48:47.518Z,101125.00
2022-12-12T18:51:15.494Z,101126.00
2022-12-12T18:53:42.178Z,101118.00
2022-12-12T18:56:10.045Z,101119.00
2022-12-12T18:58:37.648Z,101123.00
2022-12-12T19:01:21.470Z,101112.00
2022-12-12T19:03:50.132Z,101128.00
2022-12-12T19:06:19.774Z,101126.00
2022-12-12T19:08:46.612Z,101121.00
2022-12-12T19:11:14.363Z,101119.00
2022-12-12T19:13:42.984Z,101116.00
2022-12-12T19:16:16.070Z,101116.00
2022-12-12T19:18:43.932Z,101119.00
2022-12-12T19:21:16.291Z,101120.00
2022-12-12T19:23:43.118Z,101128.00
2022-12-12T19:26:13.120Z,101121.00
2022-12-12T19:28:40.403Z,101118.00
2022-12-12T19:31:09.744Z,101123.00
2022-12-12T19:33:37.038Z,101127.00
2022-12-12T19:36:16.163Z,101120.00
2022-12-12T19:38:43.708Z,101120.00
2022-12-12T19:41:13.179Z,101132.00
2022-12-12T19:43:41.157Z,101131.00
2022-12-12T19:46:10.547Z,101144.00
2022-12-12T19:48:37.965Z,101133.00
2022-12-12T19:51:09.780Z,101133.00
2022-12-12T19:53:43.713Z,101141.00
2022-12-12T19:56:16.010Z,101133.00
2022-12-12T19:58:43.095Z,101141.00
2022-12-12T20:01:13.125Z,101150.00
2022-12-12T20:03:40.687Z,101142.00
2022-12-12T20:06:10.837Z,101141.00
2022-12-12T20:08:37.871Z,101142.00
2022-12-12T20:11:09.762Z,101139.00
2022-12-12T20:13:36.599Z,101153.00
2022-12-12T20:16:11.412Z,101147.00
2022-12-12T20:18:38.615Z,101152.00
2022-12-12T20:21:06.141Z,101149.00
2022-12-12T20:23:35.902Z,101156.00
2022-12-12T20:26:07.030Z,101150.00
2022-12-12T20:28:33.817Z,101155.00
2022-12-12T20:31:11.657Z,101156.00
2022-12-12T20:33:39.387Z,101155.00
2022-12-12T20:36:13.076Z,101159.00
2022-12-12T20:38:40.306Z,101149.00
2022-12-12T20:41:12.852Z,101145.00
2022-12-12T20:43:40.284Z,101152.00
2022-12-12T20:46:18.332Z,101152.00
2022-12-12T20:48:45.653Z,101155.00
2022-12-12T20:51:45.674Z,101163.00
2022-12-12T20:54:04.770Z,101158.00
2022-12-12T20:56:31.364Z,101151.00
2022-12-12T20:59:00.453Z,101156.00
2022-12-12T21:01:37.599Z,101154.00
2022-12-12T21:04:06.488Z,101153.00
2022-12-12T21:06:35.917Z,101143.00
2022-12-12T21:09:06.409Z,101155.00
2022-12-12T21:11:33.298Z,101147.00
2022-12-12T21:14:00.457Z,101149.00
2022-12-12T21:16:30.941Z,101139.00
2022-12-12T21:19:01.092Z,101146.00
2022-12-12T21:21:28.226Z,101145.00
2022-12-12T21:23:55.438Z,101140.00
2022-12-12T21:26:28.610Z,101142.00
2022-12-12T21:28:56.715Z,101141.00
2022-12-12T21:31:32.295Z,101147.00
2022-12-12T21:33:59.500Z,101138.00
2022-12-12T21:36:27.879Z,101133.00
2022-12-12T21:38:56.092Z,101137.00
2022-12-12T21:41:23.680Z,101139.00
2022-12-12T21:43:50.730Z,101138.00
2022-12-12T21:46:22.723Z,101143.00
2022-12-12T21:49:12.972Z,101144.00
2022-12-12T21:51:41.046Z,101134.00
2022-12-12T21:54:08.532Z,101140.00
2022-12-12T21:56:35.434Z,101137.00
2022-12-12T21:59:03.387Z,101139.00
2022-12-12T22:01:32.069Z,101142.00
2022-12-12T22:03:59.629Z,101131.00
2022-12-12T22:06:29.301Z,101131.00
2022-12-12T22:08:56.788Z,101134.00
2022-12-12T22:11:40.194Z,101135.00
2022-12-12T22:14:11.383Z,101137.00
2022-12-12T22:16:38.317Z,101136.00
2022-12-12T22:19:10.211Z,101134.00
2022-12-12T22:21:37.484Z,101141.00
2022-12-12T22:24:04.886Z,101135.00
2022-12-12T22:26:40.185Z,101148.00
2022-12-12T22:29:10.179Z,101145.00
2022-12-12T22:31:38.536Z,101134.00
2022-12-12T22:34:08.221Z,101140.00
2022-12-12T22:36:36.983Z,101144.00
2022-12-12T22:39:06.059Z,101138.00
2022-12-12T22:41:32.949Z,101139.00
2022-12-12T22:44:03.808Z,101135.00
2022-12-12T22:46:31.014Z,101139.00
2022-12-12T22:48:59.926Z,101140.00
2022-12-12T22:51:29.680Z,101141.00
2022-12-12T22:53:58.060Z,101139.00
2022-12-12T22:56:25.423Z,101142.00
2022-12-12T22:58:52.019Z,101130.00
2022-12-12T23:01:21.091Z,101142.00
2022-12-12T23:03:48.384Z,101134.00
2022-12-12T23:06:27.107Z,101132.00
2022-12-12T23:08:56.659Z,101136.00
2022-12-12T23:11:24.860Z,101134.00
2022-12-12T23:13:54.700Z,101124.00
2022-12-12T23:16:24.095Z,101125.00
2022-12-12T23:18:51.361Z,101115.00
2022-12-12T23:21:19.687Z,101128.00
2022-12-12T23:23:46.842Z,101110.00
2022-12-12T23:26:16.169Z,101101.00
2022-12-12T23:28:43.794Z,101102.00
2022-12-12T23:31:22.406Z,101099.00
2022-12-12T23:33:52.758Z,101100.00
2022-12-12T23:36:19.302Z,101091.00
2022-12-12T23:38:45.901Z,101100.00
2022-12-12T23:41:14.600Z,101093.00
2022-12-12T23:43:42.329Z,101091.00
2022-12-12T23:46:28.352Z,101100.00
2022-12-12T23:49:06.394Z,101088.00
2022-12-12T23:51:35.909Z,101083.00
2022-12-12T23:54:04.900Z,101080.00
2022-12-12T23:56:32.303Z,101079.00
2022-12-12T23:58:59.941Z,101081.00
